Time;durP1;ratioP1;P1;durP2;ratioP2;P2;SDS_P1;SDS_P2;PMS_P1;PMS_P2;Temp;Humidity;BMP_temperature;BMP_pressure;BME280_temperature;BME280_humidity;BME280_pressure;Samples;Min_cycle;Max_cycle;Signal;HPM_P1;HPM_P2
2022/05/19 00:01:58;;;;;;;3.30;1.80;;;10.50;96.50;;;10.52;67.51;96002.91;5069589;28;20501;-57
2022/05/19 00:04:27;;;;;;;2.20;2.00;;;10.50;96.70;;;10.50;67.47;96003.03;5071330;28;20474;-56
2022/05/19 00:06:54;;;;;;;4.57;2.27;;;10.50;96.70;;;10.49;67.59;95998.69;5068060;28;20478;-56
2022/05/19 00:09:21;;;;;;;2.60;2.30;;;10.50;96.60;;;10.49;67.54;95998.69;5072416;28;20459;-53
2022/05/19 00:11:49;;;;;;;2.13;2.03;;;10.50;96.70;;;10.49;67.59;96001.34;5069223;28;20479;-54
2022/05/19 00:14:16;;;;;;;1.63;1.53;;;10.40;96.60;;;10.47;67.74;95991.88;5066519;28;20542;-57
2022/05/19 00:16:44;;;;;;;5.87;2.43;;;10.40;96.70;;;10.46;67.73;95995.47;5069655;28;20473;-54
2022/05/19 00:19:12;;;;;;;2.57;2.37;;;10.40;96.70;;;10.45;67.45;95999.03;5065882;28;20908;-55
2022/05/19 00:21:40;;;;;;;5.67;2.00;;;10.40;96.70;;;10.43;67.26;95998.31;5067720;28;20575;-55
2022/05/19 00:24:09;;;;;;;3.77;2.17;;;10.40;96.50;;;10.40;67.65;95999.38;5063547;28;20481;-53
2022/05/19 00:26:36;;;;;;;14.03;2.43;;;10.40;96.70;;;10.38;67.68;96003.91;5068517;28;20487;-54
2022/05/19 00:29:03;;;;;;;5.53;2.40;;;10.40;96.80;;;10.36;67.99;95998.75;5066156;28;20478;-54
2022/05/19 00:31:32;;;;;;;5.93;2.50;;;10.30;96.90;;;10.33;68.13;96001.59;5068253;28;20532;-56
2022/05/19 00:33:59;;;;;;;2.53;2.33;;;10.30;96.90;;;10.32;67.62;96009.56;5070001;28;20463;-54
2022/05/19 00:36:26;;;;;;;5.03;2.70;;;10.30;96.60;;;10.28;67.59;96008.94;5067974;28;20483;-57
2022/05/19 00:38:55;;;;;;;2.40;2.20;;;10.30;96.50;;;10.25;67.58;96016.22;5069033;28;20486;-54
2022/05/19 00:41:22;;;;;;;2.60;2.40;;;10.20;96.40;;;10.22;67.27;96014.63;5067748;28;21000;-53
2022/05/19 00:43:58;;;;;;;2.27;2.07;;;10.20;96.40;;;10.18;67.42;96008.75;5064917;28;20466;-55
2022/05/19 00:46:27;;;;;;;6.07;3.03;;;10.10;96.30;;;10.14;67.25;96015.16;5068453;28;20481;-54
2022/05/19 00:49:07;;;;;;;2.47;2.27;;;10.10;96.30;;;10.10;67.38;96018.13;5066353;28;20470;-54
2022/05/19 00:51:40;;;;;;;2.93;2.73;;;10.10;96.30;;;10.05;67.02;96011.44;5065543;28;20483;-56
2022/05/19 00:54:12;;;;;;;2.07;1.97;;;10.10;96.30;;;10.03;67.08;96021.19;5066185;28;21038;-53
2022/05/19 00:56:42;;;;;;;3.27;2.33;;;10.00;96.20;;;10.00;67.27;96021.41;5068760;28;20475;-53
2022/05/19 00:59:12;;;;;;;2.70;2.50;;;10.00;96.30;;;9.98;67.03;96017.22;5063360;28;20533;-55
2022/05/19 01:01:42;;;;;;;5.57;2.77;;;10.00;96.30;;;9.93;67.31;96024.56;5066029;28;21014;-53
2022/05/19 01:04:13;;;;;;;8.40;2.60;;;9.90;96.90;;;9.89;67.32;96021.31;5069351;28;20471;-53
2022/05/19 01:06:40;;;;;;;22.83;2.97;;;9.90;97.00;;;9.86;67.74;96029.41;5061996;28;20490;-55
2022/05/19 01:09:11;;;;;;;2.33;2.13;;;9.90;97.10;;;9.83;68.02;96035.72;5065344;28;20520;-54
2022/05/19 01:11:39;;;;;;;10.83;2.90;;;9.80;97.40;;;9.83;68.11;96034.88;5065981;28;20486;-56
2022/05/19 01:14:06;;;;;;;12.60;3.63;;;9.80;97.20;;;9.78;68.03;96031.75;5065897;28;20932;-54
2022/05/19 01:16:34;;;;;;;4.50;1.80;;;9.80;97.20;;;9.76;68.17;96044.13;5068459;28;20514;-55
2022/05/19 01:19:01;;;;;;;5.17;2.90;;;9.80;97.40;;;9.76;68.28;96036.25;5065098;28;20487;-56
2022/05/19 01:21:29;;;;;;;2.07;1.97;;;9.70;97.50;;;9.75;67.99;96031.97;5067164;28;20478;-54
2022/05/19 01:24:07;;;;;;;5.10;2.60;;;9.70;97.50;;;9.69;68.21;96034.03;5065342;28;20513;-54
2022/05/19 01:26:45;;;;;;;8.20;2.60;;;9.70;97.50;;;9.67;68.31;96037.75;5065128;28;20471;-55
2022/05/19 01:29:13;;;;;;;4.30;2.80;;;9.70;97.50;;;9.66;68.38;96041.31;5066233;28;20466;-55
2022/05/19 01:31:46;;;;;;;5.73;2.50;;;9.70;97.70;;;9.59;68.64;96035.66;5065890;28;21076;-54
2022/05/19 01:34:14;;;;;;;3.90;2.50;;;9.60;97.70;;;9.60;67.99;96046.97;5065009;28;20459;-54
2022/05/19 01:36:41;;;;;;;8.20;2.40;;;9.60;97.50;;;9.53;67.92;96038.69;5066137;28;20478;-54
2022/05/19 01:39:13;;;;;;;2.90;2.70;;;9.60;97.20;;;9.44;68.31;96050.66;5065153;28;21003;-54
2022/05/19 01:41:52;;;;;;;5.90;2.47;;;9.50;97.40;;;9.42;68.84;96047.28;5067098;28;20483;-56
2022/05/19 01:44:35;;;;;;;3.27;2.30;;;9.40;97.90;;;9.44;69.16;96047.19;5065137;28;20459;-56
2022/05/19 01:47:08;;;;;;;3.30;2.60;;;9.40;98.00;;;9.46;69.03;96053.16;5064940;28;20849;-57
2022/05/19 01:49:41;;;;;;;10.43;1.87;;;9.50;98.20;;;9.50;68.74;96044.16;5066916;28;20455;-54
2022/05/19 01:52:21;;;;;;;4.60;2.23;;;9.50;98.10;;;9.54;69.20;96045.59;5065815;28;20479;-55
2022/05/19 01:54:54;;;;;;;4.53;1.77;;;9.50;98.10;;;9.56;68.91;96048.13;5063108;28;20450;-55
2022/05/19 01:57:27;;;;;;;2.50;2.10;;;9.50;98.00;;;9.57;68.92;96057.69;5065568;28;20467;-54
2022/05/19 02:00:01;;;;;;;6.10;2.33;;;9.60;98.00;;;9.57;68.82;96058.53;5066435;28;20457;-54
2022/05/19 02:02:37;;;;;;;2.90;2.13;;;9.50;98.00;;;9.57;68.61;96055.06;5064011;28;20777;-55
2022/05/19 02:05:09;;;;;;;7.30;3.03;;;9.60;98.10;;;9.56;68.54;96059.50;5065167;28;20450;-57
2022/05/19 02:07:37;;;;;;;5.03;2.40;;;9.60;97.90;;;9.54;68.02;96060.53;5064933;28;20451;-56
2022/05/19 02:10:07;;;;;;;6.70;1.97;;;9.50;97.40;;;9.51;68.17;96059.81;5065767;28;20455;-55
2022/05/19 02:12:37;;;;;;;2.20;2.00;;;9.50;97.40;;;9.47;67.87;96062.72;5064895;28;20459;-55
2022/05/19 02:15:07;;;;;;;1.87;1.77;;;9.50;97.00;;;9.41;67.77;96063.16;5067238;28;20458;-55
2022/05/19 02:17:34;;;;;;;3.43;2.07;;;9.40;96.90;;;9.35;67.44;96064.38;5064226;28;20536;-53
2022/05/19 02:20:04;;;;;;;2.90;1.80;;;9.40;96.70;;;9.30;67.50;96064.69;5065411;28;20897;-53
2022/05/19 02:22:35;;;;;;;3.13;1.87;;;9.30;96.70;;;9.26;67.17;96065.84;5065725;28;20462;-56
2022/05/19 02:25:08;;;;;;;5.43;1.60;;;9.30;96.70;;;9.21;67.46;96065.31;5063501;28;20951;-55
2022/05/19 02:27:41;;;;;;;1.77;1.67;;;9.20;96.60;;;9.18;67.24;96068.13;5066162;28;20462;-56
2022/05/19 02:30:12;;;;;;;2.53;1.50;;;9.20;96.80;;;9.15;67.50;96068.34;5065591;28;20459;-56
2022/05/19 02:32:39;;;;;;;1.70;1.60;;;9.20;96.90;;;9.12;67.25;96068.53;5067541;28;20486;-57
2022/05/19 02:35:08;;;;;;;1.83;1.43;;;9.20;96.80;;;9.09;67.49;96066.13;5064489;28;21011;-54
2022/05/19 02:37:36;;;;;;;1.90;1.60;;;9.10;96.70;;;9.06;67.13;96072.44;5065905;28;20482;-55
2022/05/19 02:40:04;;;;;;;2.23;1.60;;;9.10;96.90;;;9.04;67.20;96066.41;5066458;28;20970;-55
2022/05/19 02:42:31;;;;;;;2.23;1.60;;;9.00;96.80;;;9.03;67.30;96064.75;5065506;28;20455;-55
2022/05/19 02:45:00;;;;;;;6.20;1.70;;;9.10;97.00;;;9.03;67.55;96066.53;5067219;28;20459;-55
2022/05/19 02:47:27;;;;;;;4.83;1.77;;;9.00;97.00;;;9.03;68.02;96063.91;5063317;28;20466;-60
2022/05/19 02:49:55;;;;;;;4.07;1.43;;;9.00;97.10;;;9.03;67.90;96074.41;5065593;28;20580;-55
2022/05/19 02:52:22;;;;;;;4.10;1.80;;;9.00;97.00;;;9.03;67.36;96067.38;5065177;28;20463;-56
2022/05/19 02:54:49;;;;;;;2.07;1.87;;;9.00;97.10;;;9.05;67.71;96067.28;5065259;28;20458;-55
2022/05/19 02:57:16;;;;;;;9.83;4.00;;;9.00;97.20;;;9.05;67.67;96067.28;5064974;28;21044;-55
2022/05/19 02:59:44;;;;;;;4.57;2.10;;;9.10;97.10;;;9.05;67.71;96064.66;5064536;28;20483;-55
2022/05/19 03:02:12;;;;;;;6.73;2.07;;;9.10;97.10;;;9.06;67.45;96074.19;5064842;28;20540;-56
2022/05/19 03:04:40;;;;;;;4.90;1.87;;;9.10;97.10;;;9.04;67.20;96068.22;5064785;28;20489;-53
2022/05/19 03:07:07;;;;;;;2.70;1.80;;;9.10;97.10;;;9.05;67.65;96075.16;5065147;28;20897;-55
2022/05/19 03:09:35;;;;;;;2.80;1.87;;;9.00;97.10;;;9.05;67.95;96075.16;5064960;28;20470;-55
2022/05/19 03:12:02;;;;;;;1.93;1.83;;;9.10;97.10;;;9.05;67.78;96075.16;5063418;28;20475;-55
2022/05/19 03:14:31;;;;;;;6.30;2.23;;;9.10;97.10;;;9.06;67.81;96077.69;5065399;28;20460;-56
2022/05/19 03:16:58;;;;;;;2.83;2.33;;;9.10;97.20;;;9.09;67.97;96076.63;5065912;28;20482;-56
2022/05/19 03:19:27;;;;;;;5.73;2.43;;;9.10;97.30;;;9.14;67.45;96085.06;5066357;28;20509;-55
2022/05/19 03:21:54;;;;;;;5.87;2.60;;;9.10;97.10;;;9.17;67.68;96086.59;5067002;28;20586;-52
2022/05/19 03:24:21;;;;;;;15.10;2.10;;;9.20;97.20;;;9.20;67.63;96084.66;5064261;28;20466;-56
2022/05/19 03:26:48;;;;;;;2.60;1.97;;;9.20;97.10;;;9.24;67.51;96086.09;5065996;28;20485;-56
2022/05/19 03:29:16;;;;;;;5.73;3.03;;;9.30;97.00;;;9.30;67.32;96095.38;5064709;28;20447;-53
2022/05/19 03:31:43;;;;;;;2.73;2.03;;;9.30;97.00;;;9.35;67.13;96098.53;5063101;28;20475;-54
2022/05/19 03:34:11;;;;;;;5.43;2.43;;;9.30;96.80;;;9.40;67.43;96091.16;5068090;28;20544;-56
2022/05/19 03:36:39;;;;;;;13.30;3.20;;;9.40;96.80;;;9.46;67.02;96100.44;5070155;28;20632;-55
2022/05/19 03:39:07;;;;;;;2.87;2.10;;;9.40;96.70;;;9.51;67.10;96103.59;5067566;28;21061;-53
2022/05/19 03:41:34;;;;;;;3.13;2.30;;;9.50;96.60;;;9.57;66.36;96102.34;5066401;28;20474;-53
2022/05/19 03:44:02;;;;;;;2.53;2.30;;;9.50;96.60;;;9.61;66.58;96102.03;5072649;28;20504;-56
2022/05/19 03:46:29;;;;;;;2.40;2.10;;;9.60;96.50;;;9.69;66.77;96117.28;5068480;28;20774;-55
2022/05/19 03:48:56;;;;;;;12.90;2.03;;;9.70;96.60;;;9.76;65.96;96115.94;5068511;28;20455;-57
2022/05/19 03:51:26;;;;;;;17.67;2.60;;;9.70;96.30;;;9.83;65.59;96113.72;5064389;28;20466;-53
2022/05/19 03:53:55;;;;;;;5.97;3.00;;;9.80;96.00;;;9.88;65.51;96124.75;5067940;28;20835;-55
2022/05/19 03:56:23;;;;;;;8.10;2.80;;;9.80;95.70;;;9.94;65.36;96124.31;5067963;28;20501;-55
2022/05/19 03:58:50;;;;;;;4.63;2.63;;;9.90;95.40;;;9.95;64.67;96123.41;5067267;28;20486;-56
2022/05/19 04:01:19;;;;;;;7.30;2.40;;;9.90;95.00;;;9.96;64.91;96125.09;5067639;28;20471;-56
2022/05/19 04:03:47;;;;;;;6.53;2.07;;;9.90;95.00;;;9.99;64.65;96130.13;5068296;28;20525;-56
2022/05/19 04:06:14;;;;;;;5.40;2.13;;;10.00;94.50;;;10.05;64.67;96129.72;5070932;28;21071;-54
2022/05/19 04:08:41;;;;;;;2.60;2.00;;;10.00;94.80;;;10.12;64.63;96134.56;5067841;28;20524;-54
2022/05/19 04:11:10;;;;;;;7.47;4.17;;;10.10;94.50;;;10.21;64.43;96144.44;5067608;28;20985;-55
2022/05/19 04:13:38;;;;;;;4.33;3.20;;;10.10;94.40;;;10.27;64.16;96130.00;5067589;28;20455;-56
2022/05/19 04:16:05;;;;;;;3.10;2.77;;;10.20;94.20;;;10.32;63.98;96141.06;5067763;28;20475;-57
2022/05/19 04:18:33;;;;;;;3.67;2.57;;;10.20;94.10;;;10.37;63.81;96133.72;5067932;28;20594;-57
2022/05/19 04:21:00;;;;;;;4.93;2.90;;;10.30;94.10;;;10.42;63.96;96130.75;5067164;28;20474;-56
2022/05/19 04:23:27;;;;;;;5.80;3.43;;;10.40;94.20;;;10.48;63.85;96143.47;5066971;28;20455;-56
2022/05/19 04:25:55;;;;;;;7.00;3.60;;;10.40;94.10;;;10.54;63.94;96140.41;5067400;28;20466;-54
2022/05/19 04:28:23;;;;;;;4.87;4.20;;;10.50;94.10;;;10.59;63.79;96135.66;5066474;28;20454;-55
2022/05/19 04:30:50;;;;;;;5.27;3.37;;;10.50;94.00;;;10.61;63.84;96148.72;5067132;28;20466;-56
2022/05/19 04:33:18;;;;;;;5.73;3.63;;;10.60;94.00;;;10.62;63.96;96145.97;5065632;28;20459;-55
2022/05/19 04:35:45;;;;;;;6.03;4.30;;;10.60;93.90;;;10.67;63.54;96150.91;5066709;28;20475;-53
2022/05/19 04:38:15;;;;;;;9.93;4.97;;;10.60;94.00;;;10.75;63.88;96149.44;5065820;28;20459;-59
2022/05/19 04:40:47;;;;;;;10.40;4.47;;;10.70;94.20;;;10.85;63.62;96149.59;5069795;28;20485;-55
2022/05/19 04:43:14;;;;;;;12.07;4.93;;;10.80;94.10;;;10.93;63.57;96152.50;5065202;28;20447;-57
2022/05/19 04:45:43;;;;;;;12.40;5.50;;;10.80;94.00;;;11.01;63.67;96149.31;5066640;28;20608;-56
2022/05/19 04:48:10;;;;;;;10.50;4.83;;;11.00;94.00;;;11.08;63.65;96155.84;5067015;28;20450;-54
2022/05/19 04:50:38;;;;;;;17.90;7.27;;;11.00;94.00;;;11.15;63.41;96155.41;5066496;28;20554;-55
2022/05/19 04:53:05;;;;;;;15.23;5.93;;;11.10;93.90;;;11.22;63.36;96151.38;5066980;28;20963;-56
2022/05/19 04:55:32;;;;;;;7.97;5.10;;;11.20;93.80;;;11.29;63.12;96157.84;5070620;28;20462;-55
2022/05/19 04:58:00;;;;;;;9.97;5.63;;;11.20;93.70;;;11.38;63.18;96157.19;5066561;28;20535;-56
2022/05/19 05:00:27;;;;;;;7.13;5.10;;;11.30;93.70;;;11.45;62.96;96166.31;5065904;28;20490;-55
2022/05/19 05:02:56;;;;;;;12.37;5.97;;;11.40;93.70;;;11.54;62.91;96166.59;5063098;28;20443;-55
2022/05/19 05:05:23;;;;;;;16.20;5.70;;;11.40;93.60;;;11.65;63.18;96162.22;5062344;28;20482;-56
2022/05/19 05:07:51;;;;;;;9.00;4.77;;;11.50;93.70;;;11.78;62.89;96170.03;5065519;28;21041;-57
2022/05/19 05:10:18;;;;;;;5.17;4.67;;;11.70;93.60;;;11.91;62.59;96169.09;5067022;28;20479;-55
2022/05/19 05:12:46;;;;;;;15.53;5.30;;;11.80;93.50;;;12.03;62.57;96170.84;5067094;28;20931;-56
2022/05/19 05:15:13;;;;;;;9.13;4.97;;;11.90;93.30;;;12.08;62.12;96170.50;5066690;28;20463;-56
2022/05/19 05:17:40;;;;;;;8.00;4.87;;;12.00;92.90;;;12.11;62.00;96168.47;5063489;28;20460;-55
2022/05/19 05:20:11;;;;;;;5.13;4.17;;;12.00;92.80;;;12.18;61.49;96166.22;5068268;28;20482;-55
2022/05/19 05:22:38;;;;;;;6.70;4.10;;;12.10;92.70;;;12.31;61.52;96166.09;5066311;28;20482;-55
2022/05/19 05:25:07;;;;;;;13.27;4.20;;;12.20;92.80;;;12.48;61.81;96162.16;5066588;28;20500;-55
2022/05/19 05:27:35;;;;;;;13.63;3.23;;;12.30;92.90;;;12.68;60.98;96160.59;5064822;28;20458;-55
2022/05/19 05:30:04;;;;;;;7.23;3.50;;;12.50;92.60;;;12.86;60.65;96167.06;5064374;28;20554;-55
2022/05/19 05:32:31;;;;;;;5.20;4.23;;;12.70;92.40;;;13.04;60.32;96174.47;5061593;28;20463;-59
2022/05/19 05:34:58;;;;;;;5.53;3.87;;;12.80;91.80;;;13.18;59.38;96173.38;5059209;28;20528;-56
2022/05/19 05:37:27;;;;;;;6.30;2.97;;;13.00;91.60;;;13.33;59.72;96166.88;5064376;28;20455;-54
2022/05/19 05:39:54;;;;;;;4.17;2.83;;;13.10;91.50;;;13.51;59.27;96177.75;5063082;28;20548;-55
2022/05/19 05:42:23;;;;;;;6.17;2.90;;;13.20;91.10;;;13.71;58.82;96172.63;5063883;28;20463;-55
2022/05/19 05:44:50;;;;;;;6.77;3.67;;;13.40;91.00;;;13.88;58.83;96180.00;5064348;28;20443;-56
2022/05/19 05:47:17;;;;;;;15.90;4.90;;;13.60;90.80;;;14.09;58.29;96176.53;5065572;28;20489;-55
2022/05/19 05:49:45;;;;;;;4.77;3.27;;;13.80;90.50;;;14.28;58.00;96175.81;5064202;28;20451;-56
2022/05/19 05:52:12;;;;;;;7.23;3.70;;;14.00;90.00;;;14.47;57.26;96177.72;5061745;28;20478;-54
2022/05/19 05:54:41;;;;;;;3.57;3.03;;;14.20;89.70;;;14.67;57.17;96182.19;5063486;28;20459;-54
2022/05/19 05:57:08;;;;;;;23.20;2.80;;;14.40;89.60;;;14.89;57.01;96177.66;5064918;28;20467;-54
2022/05/19 05:59:35;;;;;;;4.90;3.13;;;14.60;88.80;;;15.08;56.50;96178.69;5061818;28;20497;-54
2022/05/19 06:02:03;;;;;;;4.30;3.27;;;14.80;88.00;;;15.20;55.85;96185.56;5064551;28;20524;-55
2022/05/19 06:04:30;;;;;;;11.00;3.13;;;14.90;86.50;;;15.32;55.89;96181.81;5065619;28;20451;-56
2022/05/19 06:06:57;;;;;;;7.90;2.80;;;15.00;86.30;;;15.47;55.15;96184.91;5062557;28;20474;-56
2022/05/19 06:09:25;;;;;;;3.23;2.80;;;15.10;85.20;;;15.60;55.03;96185.47;5065302;28;20451;-57
2022/05/19 06:11:53;;;;;;;3.80;3.17;;;15.30;84.90;;;15.78;54.88;96187.47;5064659;28;20475;-54
2022/05/19 06:14:21;;;;;;;5.70;2.87;;;15.40;84.50;;;15.96;54.63;96187.63;5065037;28;20455;-56
2022/05/19 06:16:48;;;;;;;20.63;4.03;;;15.60;84.00;;;16.15;54.29;96189.41;5065247;28;20554;-55
2022/05/19 06:19:18;;;;;;;6.53;3.20;;;15.80;83.50;;;16.32;54.04;96185.19;5063687;28;20486;-55
2022/05/19 06:21:46;;;;;;;5.50;2.63;;;16.00;83.10;;;16.48;53.21;96192.53;5063432;28;20508;-55
2022/05/19 06:24:14;;;;;;;9.40;3.00;;;16.10;81.50;;;16.63;53.09;96179.66;5065262;28;20509;-57
2022/05/19 06:26:41;;;;;;;7.27;2.33;;;16.30;81.40;;;16.82;52.92;96184.91;5064583;28;20906;-57
2022/05/19 06:29:10;;;;;;;6.93;2.97;;;16.40;81.10;;;17.03;52.48;96184.69;5064881;28;21024;-55
2022/05/19 06:31:37;;;;;;;9.00;2.60;;;16.60;79.90;;;17.22;52.47;96182.91;5064962;28;20471;-55
2022/05/19 06:34:05;;;;;;;2.77;2.57;;;16.80;80.00;;;17.44;51.77;96186.97;5063856;28;20473;-56
2022/05/19 06:36:32;;;;;;;5.00;2.60;;;17.00;79.30;;;17.62;51.43;96181.69;5063825;28;20548;-55
2022/05/19 06:38:59;;;;;;;3.80;3.23;;;17.20;78.50;;;17.80;51.80;96184.34;5064992;28;20909;-55
2022/05/19 06:44:12;;;;;;;8.97;2.83;;;17.60;77.30;;;18.16;50.84;96181.69;5064921;28;20484;-55
2022/05/19 06:46:39;;;;;;;9.13;3.97;;;17.80;77.00;;;18.33;50.25;96181.81;5064709;28;20475;-55
2022/05/19 06:49:07;;;;;;;6.87;4.10;;;17.90;76.80;;;18.47;50.42;96186.56;5064905;28;20454;-57
2022/05/19 06:51:34;;;;;;;4.40;3.83;;;18.10;76.30;;;18.61;50.57;96180.66;5061707;28;20477;-55
2022/05/19 06:54:01;;;;;;;9.30;3.70;;;18.20;76.20;;;18.73;49.89;96186.56;5064487;28;20977;-56
2022/05/19 06:56:29;;;;;;;4.20;3.80;;;18.30;75.80;;;18.85;49.42;96187.16;5064418;28;20845;-56
2022/05/19 06:58:56;;;;;;;7.37;3.20;;;18.40;74.10;;;18.93;49.23;96189.00;5064202;28;20493;-54
2022/05/19 07:01:24;;;;;;;3.10;2.90;;;18.50;73.00;;;18.90;48.62;96187.53;5063461;28;20963;-56
2022/05/19 07:03:52;;;;;;;6.83;2.50;;;18.50;71.70;;;18.84;47.50;96184.59;5064018;28;20436;-53
2022/05/19 07:06:19;;;;;;;3.83;2.13;;;18.50;69.90;;;18.81;48.12;96186.59;5064219;28;20478;-55
2022/05/19 07:08:47;;;;;;;11.60;3.13;;;18.40;70.80;;;18.83;47.59;96180.28;5065089;28;20481;-57
2022/05/19 07:11:25;;;;;;;2.80;2.60;;;18.40;69.60;;;18.93;47.94;96189.00;5067526;28;20566;-56
2022/05/19 07:13:53;;;;;;;4.80;2.83;;;18.50;68.70;;;19.14;47.78;96191.28;5068206;28;20450;-56
2022/05/19 07:16:21;;;;;;;7.47;2.70;;;18.70;69.40;;;19.34;47.34;96184.69;5066206;28;21014;-56
2022/05/19 07:18:50;;;;;;;2.47;2.37;;;18.80;69.40;;;19.57;47.52;96178.75;5068442;28;20455;-54
2022/05/19 07:21:17;;;;;;;3.40;3.10;;;19.10;68.90;;;19.83;47.18;96180.47;5068667;28;20463;-57
2022/05/19 07:23:44;;;;;;;6.67;3.77;;;19.30;68.00;;;20.06;46.77;96186.84;5068189;28;20588;-57
2022/05/19 07:26:12;;;;;;;6.10;3.40;;;19.60;68.00;;;20.31;46.34;96178.84;5068416;28;20932;-54
2022/05/19 07:28:39;;;;;;;5.33;2.23;;;19.80;66.40;;;20.54;45.53;96178.13;5068703;28;20836;-56
2022/05/19 07:31:07;;;;;;;4.87;3.00;;;20.00;64.60;;;20.76;45.26;96181.97;5065452;28;20467;-57
2022/05/19 07:33:36;;;;;;;3.10;2.20;;;20.20;64.20;;;20.99;44.64;96182.06;5067186;28;20558;-55
2022/05/19 07:36:08;;;;;;;3.43;2.90;;;20.50;63.20;;;21.24;43.95;96171.25;5068497;28;20540;-55
2022/05/19 07:38:36;;;;;;;5.23;2.27;;;20.70;60.60;;;21.44;43.90;96177.84;5068718;28;20854;-56
2022/05/19 07:41:04;;;;;;;2.00;1.90;;;21.00;61.00;;;21.56;42.74;96174.81;5067579;28;20491;-55
2022/05/19 07:43:37;;;;;;;8.20;2.33;;;21.10;58.60;;;21.61;42.60;96173.28;5066696;28;20824;-56
2022/05/19 07:46:06;;;;;;;4.47;2.70;;;21.20;57.90;;;21.64;42.33;96174.75;5068456;28;20906;-54
2022/05/19 07:48:33;;;;;;;2.90;2.33;;;21.20;57.60;;;21.73;42.32;96172.88;5067284;28;20446;-55
2022/05/19 07:51:02;;;;;;;4.50;3.33;;;21.30;57.50;;;21.85;42.11;96177.63;5067935;28;20467;-55
2022/05/19 07:53:31;;;;;;;2.93;2.47;;;21.40;57.20;;;22.02;41.52;96172.16;5067868;28;20451;-55
2022/05/19 07:55:58;;;;;;;3.90;2.10;;;21.50;57.20;;;22.25;40.55;96182.03;5068241;28;20497;-54
2022/05/19 07:58:25;;;;;;;9.63;2.33;;;21.70;54.80;;;22.50;40.44;96178.13;5067656;28;20850;-56
2022/05/19 08:00:53;;;;;;;6.77;1.83;;;22.00;54.70;;;22.73;40.37;96180.75;5067537;28;20501;-55
2022/05/19 08:03:22;;;;;;;3.40;2.00;;;22.20;54.40;;;22.77;39.73;96175.03;5066867;28;20450;-56
2022/05/19 08:05:50;;;;;;;7.97;2.20;;;22.30;53.20;;;22.80;39.39;96172.81;5066962;28;20606;-54
2022/05/19 08:08:17;;;;;;;12.00;2.60;;;22.40;53.10;;;22.96;39.30;96174.50;5064044;28;20521;-55
2022/05/19 08:10:46;;;;;;;4.47;2.33;;;22.50;53.40;;;23.23;39.11;96174.88;5067275;28;20607;-55
2022/05/19 08:15:58;;;;;;;3.27;2.20;;;22.90;49.70;;;23.78;37.35;96173.44;5065335;28;20530;-55
2022/05/19 08:18:26;;;;;;;1.60;1.50;;;23.30;50.70;;;23.99;36.99;96169.13;5066853;28;20886;-54
2022/05/19 08:20:56;;;;;;;2.60;1.60;;;23.50;50.60;;;24.07;36.34;96162.78;5066897;28;20573;-57
2022/05/19 08:23:25;;;;;;;8.73;1.87;;;23.70;48.30;;;24.10;36.89;96165.09;5067430;28;20435;-56
2022/05/19 08:25:54;;;;;;;9.40;1.70;;;23.70;48.80;;;24.21;36.29;96169.94;5067715;28;20532;-55
2022/05/19 08:28:28;;;;;;;5.43;1.27;;;23.80;48.10;;;24.42;35.96;96169.09;5064068;28;20849;-54
2022/05/19 08:30:57;;;;;;;2.40;1.23;;;23.90;47.80;;;24.70;35.20;96161.06;5066799;28;20548;-55
2022/05/19 08:33:24;;;;;;;3.23;1.77;;;24.20;47.00;;;25.01;34.22;96162.50;5066092;28;20454;-56
2022/05/19 08:35:52;;;;;;;4.77;1.60;;;24.50;46.60;;;25.26;33.85;96159.28;5067039;28;20565;-54
2022/05/19 08:38:19;;;;;;;6.60;1.30;;;24.70;45.30;;;25.38;32.46;96163.13;5063202;28;20450;-55
2022/05/19 08:40:50;;;;;;;1.57;1.10;;;24.90;43.50;;;25.38;32.06;96162.28;5067032;28;20872;-54
2022/05/19 08:43:21;;;;;;;1.27;1.07;;;24.90;43.10;;;25.43;32.51;96153.59;5066640;28;20466;-57
2022/05/19 08:45:51;;;;;;;6.63;1.30;;;25.00;42.90;;;25.54;31.99;96150.31;5067369;28;20475;-55
2022/05/19 08:48:21;;;;;;;2.00;1.00;;;25.10;42.00;;;25.44;31.29;96149.84;5067413;28;20443;-55
2022/05/19 08:50:50;;;;;;;4.97;1.10;;;25.10;40.90;;;25.39;30.99;96147.78;5067507;28;20475;-55
2022/05/19 08:53:18;;;;;;;1.57;1.13;;;25.00;41.10;;;25.41;30.92;96143.84;5066647;28;20443;-55
2022/05/19 08:55:48;;;;;;;2.47;1.00;;;25.00;40.70;;;25.33;28.51;96144.03;5066957;28;20918;-55
2022/05/19 08:58:44;;;;;;;1.87;1.00;;;25.00;38.10;;;25.02;29.63;96148.00;5066194;28;20447;-55
2022/05/19 09:01:16;;;;;;;1.83;1.10;;;24.80;39.00;;;24.91;30.47;96140.50;5066244;28;20487;-55
2022/05/19 09:03:52;;;;;;;1.67;1.00;;;24.60;38.60;;;24.82;30.22;96144.38;5063782;28;20796;-57
2022/05/19 09:06:31;;;;;;;4.20;1.40;;;24.50;39.90;;;24.74;29.12;96131.91;5066817;28;20915;-58
2022/05/19 09:09:08;;;;;;;1.60;1.20;;;24.40;37.90;;;24.46;29.44;96123.81;5063795;28;20447;-56
2022/05/19 09:11:40;;;;;;;3.90;1.53;;;24.30;37.60;;;24.15;29.64;96130.41;5065824;28;20770;-55
2022/05/19 09:14:19;;;;;;;2.63;1.57;;;23.90;38.20;;;23.94;30.09;96112.44;5063515;28;20646;-55
2022/05/19 09:16:46;;;;;;;2.13;1.93;;;23.60;38.60;;;23.96;30.44;96115.78;5066922;28;20877;-54
2022/05/19 09:19:18;;;;;;;3.90;1.57;;;23.60;39.50;;;24.11;30.86;96119.22;5064772;28;20910;-55
2022/05/19 09:21:49;;;;;;;7.33;1.50;;;23.60;39.60;;;24.30;30.14;96112.31;5066584;28;20495;-54
2022/05/19 09:24:16;;;;;;;2.70;1.07;;;23.80;39.10;;;24.36;30.09;96110.72;5065050;28;21019;-55
2022/05/19 09:26:49;;;;;;;6.63;1.20;;;23.90;39.00;;;24.48;28.74;96105.63;5061933;28;20964;-57
2022/05/19 09:29:21;;;;;;;2.50;1.70;;;24.00;37.50;;;24.66;29.85;96106.00;5065172;28;20469;-55
2022/05/19 09:31:51;;;;;;;1.80;1.70;;;24.20;39.00;;;24.98;30.08;96095.59;5061328;28;21100;-57
2022/05/19 09:34:18;;;;;;;3.90;1.40;;;24.50;39.40;;;25.28;29.65;96103.38;5065201;28;20478;-56
2022/05/19 09:37:01;;;;;;;2.70;1.50;;;24.80;39.10;;;25.54;29.99;96101.81;5066347;28;20938;-57
2022/05/19 09:39:33;;;;;;;5.50;1.30;;;25.00;39.30;;;25.76;29.55;96095.25;5063493;28;20486;-54
2022/05/19 09:42:05;;;;;;;5.93;1.17;;;25.30;38.60;;;26.00;27.55;96103.78;5066268;28;20866;-54
2022/05/19 09:44:35;;;;;;;2.23;1.27;;;25.50;37.20;;;26.07;28.86;96104.63;5065860;28;20504;-58
2022/05/19 09:47:16;;;;;;;3.37;1.10;;;25.60;38.00;;;26.04;27.81;96098.81;5063054;28;20560;-56
2022/05/19 09:49:49;;;;;;;1.30;1.20;;;25.60;37.70;;;26.01;29.00;96101.91;5065573;28;20450;-58
2022/05/19 09:52:18;;;;;;;2.47;1.63;;;25.60;38.00;;;26.08;28.33;96098.19;5066387;28;20467;-55
2022/05/19 09:54:52;;;;;;;1.30;1.13;;;25.60;37.50;;;26.00;28.45;96090.31;5063973;28;20443;-55
2022/05/19 09:57:25;;;;;;;4.07;1.60;;;25.60;37.10;;;25.97;29.28;96079.91;5065978;28;20467;-55
2022/05/19 09:59:54;;;;;;;2.87;1.20;;;25.60;37.70;;;26.07;29.19;96085.75;5064627;28;20445;-55
2022/05/19 10:02:30;;;;;;;1.47;1.37;;;25.60;38.10;;;26.14;28.38;96076.84;5062893;28;20454;-57
2022/05/19 10:05:00;;;;;;;10.63;1.40;;;25.70;37.50;;;25.89;28.16;96067.47;5064102;28;20976;-55
2022/05/19 10:07:30;;;;;;;1.40;1.30;;;25.60;36.60;;;25.64;28.56;96069.94;5065098;28;20526;-59
2022/05/19 10:09:57;;;;;;;2.90;1.40;;;25.40;37.40;;;25.71;29.73;96076.16;5065584;28;20455;-57
2022/05/19 10:12:28;;;;;;;4.50;1.30;;;25.30;38.60;;;25.89;29.21;96074.72;5063336;28;20465;-56
2022/05/19 10:15:11;;;;;;;2.70;1.40;;;25.40;38.30;;;25.81;28.48;96069.53;5065428;28;20450;-57
2022/05/19 10:17:50;;;;;;;2.30;1.70;;;25.40;37.20;;;25.84;28.37;96069.13;5063183;28;20534;-56
2022/05/19 10:20:21;;;;;;;5.73;1.77;;;25.40;37.00;;;25.82;28.58;96057.72;5061854;28;20496;-55
2022/05/19 10:23:13;;;;;;;2.50;1.37;;;25.40;36.50;;;25.69;27.37;96056.66;5065585;28;20547;-58
2022/05/19 10:26:15;;;;;;;12.70;1.57;;;25.30;35.40;;;25.75;26.97;96063.09;5058896;28;20506;-57
2022/05/19 10:32:02;;;;;;;2.20;1.20;;;25.40;36.40;;;25.84;28.25;96052.94;5063627;28;20533;-56
2022/05/19 10:34:47;;;;;;;2.77;1.20;;;25.40;36.60;;;25.97;28.52;96049.44;5064143;28;20450;-56
2022/05/19 10:37:23;;;;;;;2.30;2.10;;;25.50;37.50;;;26.11;28.47;96048.41;5063589;28;20580;-56
2022/05/19 10:40:26;;;;;;;9.70;2.20;;;25.60;37.50;;;26.20;27.75;96046.34;5063046;28;20527;-57
2022/05/19 10:42:59;;;;;;;30.90;2.37;;;25.70;36.70;;;26.19;28.20;96034.72;5069790;28;20529;-57